Coeburn, VA

4:34 AM EDT on June 03, 2015 (GMT -0400)
Rock Bar Road | | Change Station
CLOSE
Current Station
Personal Weather Station
Location: Wise, VA
Elevation: 2579 ft
Nearby Weather Stations

Elev 2579 ft 36.96 °N, 82.57 °W | Updated 10 minutes ago

Fog
Fog
57.8 °F
Feels Like 57.8 °F
N
2.2
Wind Variable Wind from ESE

Today
High -- | Low -- °F
--% Chance of Precip.
Yesterday
High -- | Low -- °F
Precip. -- in
6:11 AM 8:44 PM
Waxing Gibbous, 99% visible
Pressure 30.07 in
Visibility 0.2 miles
Clouds Overcast 200 ft
Dew Point 58 °F
Humidity 99%
Rainfall 0.00 in
Snow Depth Not available.
UV 0 out of 12
Pollen 2.60 out of 12
Air Quality Not available.
Flu Activity Sporadic
METAR KLNP 030815Z AUTO 04003KT M1/4SM FG OVC002 14/14 A3007 RMK AO2

More Conditions Fewer Conditions

Pressure 30.07 in
Visibility 0.2 miles
Clouds Overcast 200 ft
Dew Point 58 °F
Humidity 99%
Rainfall 0.00 in
Snow Depth Not available.
UV 0 out of 12
Pollen 2.60 out of 12
Air Quality Not available.
Flu Activity Sporadic
METAR KLNP 030815Z AUTO 04003KT M1/4SM FG OVC002 14/14 A3007 RMK AO2

More Conditions Fewer Conditions

10-Day Weather Forecast

×

Almanac

Astronomy

Jun. 03, 2015 Rise Set
Actual Time
Civil Twilight
Nautical Twilight
Astronomical Twilight
Moon
Length of Visible Light
Length of Day
Tomorrow will be .
, % of the Moon is Illuminated

Today's Extremes

State Highs State Lows

Community

WunderPhotos

Upload Photos

1,826,194 photos uploaded!

WunderBlogs® & News

Nearby

Air Quality

  Air Quality AQ Index Pollutant
Not available.

Snow Depth

Station Depth Elevation

Earthquake Activity

City Distance Mag. Time & Date
Minimum magnitude displayed is 2.5.

Coastal Water Temperatures

Place Temperature

Stations

Nearby Weather Stations

Station Location Temp. Windchill Dew Point Humidity Wind Precip. Elev Updated Type